sensor_id;sensor_type;location;lat;lon;timestamp;temperature;humidity
82039;DHT22;71610;42.628;23.378;2024-03-07T00:01:27;21.30;36.20
82039;DHT22;71610;42.628;23.378;2024-03-07T00:03:53;21.30;36.20
82039;DHT22;71610;42.628;23.378;2024-03-07T00:06:19;21.30;36.20
82039;DHT22;71610;42.628;23.378;2024-03-07T00:08:46;21.30;36.30
82039;DHT22;71610;42.628;23.378;2024-03-07T00:11:12;21.30;36.30
82039;DHT22;71610;42.628;23.378;2024-03-07T00:13:38;21.30;36.30
82039;DHT22;71610;42.628;23.378;2024-03-07T00:16:03;21.30;36.30
82039;DHT22;71610;42.628;23.378;2024-03-07T00:18:29;21.30;36.30
82039;DHT22;71610;42.628;23.378;2024-03-07T00:20:55;21.30;36.20
82039;DHT22;71610;42.628;23.378;2024-03-07T00:23:21;21.30;36.20
82039;DHT22;71610;42.628;23.378;2024-03-07T00:25:47;21.30;36.30
82039;DHT22;71610;42.628;23.378;2024-03-07T00:28:15;21.30;36.20
82039;DHT22;71610;42.628;23.378;2024-03-07T00:30:43;21.30;36.30
82039;DHT22;71610;42.628;23.378;2024-03-07T00:33:13;21.30;36.20
82039;DHT22;71610;42.628;23.378;2024-03-07T00:35:39;21.30;36.20
82039;DHT22;71610;42.628;23.378;2024-03-07T00:38:05;21.20;36.20
82039;DHT22;71610;42.628;23.378;2024-03-07T00:40:32;21.30;36.20
82039;DHT22;71610;42.628;23.378;2024-03-07T00:42:58;21.20;36.20
82039;DHT22;71610;42.628;23.378;2024-03-07T00:45:25;21.20;37.30
82039;DHT22;71610;42.628;23.378;2024-03-07T00:47:51;21.30;36.20
82039;DHT22;71610;42.628;23.378;2024-03-07T00:50:16;21.20;36.20
82039;DHT22;71610;42.628;23.378;2024-03-07T00:52:42;21.20;36.20
82039;DHT22;71610;42.628;23.378;2024-03-07T00:55:08;21.20;36.20
82039;DHT22;71610;42.628;23.378;2024-03-07T00:57:34;21.20;36.20
82039;DHT22;71610;42.628;23.378;2024-03-07T01:00:00;21.30;36.20
82039;DHT22;71610;42.628;23.378;2024-03-07T01:02:26;21.20;36.30
82039;DHT22;71610;42.628;23.378;2024-03-07T01:04:52;21.20;36.20
82039;DHT22;71610;42.628;23.378;2024-03-07T01:07:20;21.20;36.20
82039;DHT22;71610;42.628;23.378;2024-03-07T01:09:46;21.20;36.20
82039;DHT22;71610;42.628;23.378;2024-03-07T01:12:13;21.20;36.20
82039;DHT22;71610;42.628;23.378;2024-03-07T01:14:39;21.20;36.20
82039;DHT22;71610;42.628;23.378;2024-03-07T01:17:05;21.20;36.20
82039;DHT22;71610;42.628;23.378;2024-03-07T01:19:35;21.20;37.30
82039;DHT22;71610;42.628;23.378;2024-03-07T01:22:00;21.20;36.20
82039;DHT22;71610;42.628;23.378;2024-03-07T01:24:26;21.20;36.20
82039;DHT22;71610;42.628;23.378;2024-03-07T01:26:52;21.20;36.20
82039;DHT22;71610;42.628;23.378;2024-03-07T01:29:18;21.20;36.20
82039;DHT22;71610;42.628;23.378;2024-03-07T01:31:44;21.20;36.20
82039;DHT22;71610;42.628;23.378;2024-03-07T01:34:09;21.20;36.20
82039;DHT22;71610;42.628;23.378;2024-03-07T01:36:35;21.20;36.20
82039;DHT22;71610;42.628;23.378;2024-03-07T01:39:01;21.20;36.20
82039;DHT22;71610;42.628;23.378;2024-03-07T01:41:29;21.20;36.20
82039;DHT22;71610;42.628;23.378;2024-03-07T01:43:54;21.20;36.20
82039;DHT22;71610;42.628;23.378;2024-03-07T01:46:20;21.20;36.20
82039;DHT22;71610;42.628;23.378;2024-03-07T01:48:46;21.20;36.20
82039;DHT22;71610;42.628;23.378;2024-03-07T01:51:13;21.20;36.20
82039;DHT22;71610;42.628;23.378;2024-03-07T01:53:40;21.10;36.10
82039;DHT22;71610;42.628;23.378;2024-03-07T01:56:06;21.20;36.20
82039;DHT22;71610;42.628;23.378;2024-03-07T01:58:32;21.20;36.20
82039;DHT22;71610;42.628;23.378;2024-03-07T02:00:59;21.20;36.20
82039;DHT22;71610;42.628;23.378;2024-03-07T02:03:25;21.10;37.20
82039;DHT22;71610;42.628;23.378;2024-03-07T02:05:51;21.10;36.10
82039;DHT22;71610;42.628;23.378;2024-03-07T02:08:18;21.10;36.10
82039;DHT22;71610;42.628;23.378;2024-03-07T02:10:45;21.20;36.10
82039;DHT22;71610;42.628;23.378;2024-03-07T02:13:11;21.10;36.10
82039;DHT22;71610;42.628;23.378;2024-03-07T02:15:37;21.10;36.10
82039;DHT22;71610;42.628;23.378;2024-03-07T02:18:03;21.10;36.10
82039;DHT22;71610;42.628;23.378;2024-03-07T02:20:29;21.10;36.10
82039;DHT22;71610;42.628;23.378;2024-03-07T02:22:55;21.10;36.00
82039;DHT22;71610;42.628;23.378;2024-03-07T02:25:21;21.10;36.10
82039;DHT22;71610;42.628;23.378;2024-03-07T02:27:47;21.10;36.10
82039;DHT22;71610;42.628;23.378;2024-03-07T02:30:12;21.10;36.00
82039;DHT22;71610;42.628;23.378;2024-03-07T02:32:39;21.10;36.00
82039;DHT22;71610;42.628;23.378;2024-03-07T02:35:05;21.10;36.10
82039;DHT22;71610;42.628;23.378;2024-03-07T02:37:31;21.10;36.10
82039;DHT22;71610;42.628;23.378;2024-03-07T02:39:57;21.10;36.10
82039;DHT22;71610;42.628;23.378;2024-03-07T02:42:22;21.10;36.10
82039;DHT22;71610;42.628;23.378;2024-03-07T02:44:48;21.10;36.10
82039;DHT22;71610;42.628;23.378;2024-03-07T02:47:14;21.10;36.10
82039;DHT22;71610;42.628;23.378;2024-03-07T02:49:40;21.10;36.10
82039;DHT22;71610;42.628;23.378;2024-03-07T02:52:06;21.10;36.10
82039;DHT22;71610;42.628;23.378;2024-03-07T02:54:34;21.10;36.00
82039;DHT22;71610;42.628;23.378;2024-03-07T02:57:00;21.10;36.10
82039;DHT22;71610;42.628;23.378;2024-03-07T02:59:26;21.10;36.10
82039;DHT22;71610;42.628;23.378;2024-03-07T03:01:52;21.10;36.10
82039;DHT22;71610;42.628;23.378;2024-03-07T03:04:18;21.10;36.20
82039;DHT22;71610;42.628;23.378;2024-03-07T03:06:43;21.10;36.20
82039;DHT22;71610;42.628;23.378;2024-03-07T03:09:10;21.10;36.20
82039;DHT22;71610;42.628;23.378;2024-03-07T03:11:39;21.10;36.20
82039;DHT22;71610;42.628;23.378;2024-03-07T03:14:05;21.10;36.20
82039;DHT22;71610;42.628;23.378;2024-03-07T03:16:30;21.10;36.20
82039;DHT22;71610;42.628;23.378;2024-03-07T03:18:57;21.10;36.20
82039;DHT22;71610;42.628;23.378;2024-03-07T03:21:23;21.10;37.20
82039;DHT22;71610;42.628;23.378;2024-03-07T03:23:49;21.20;36.10
82039;DHT22;71610;42.628;23.378;2024-03-07T03:26:15;21.20;36.20
82039;DHT22;71610;42.628;23.378;2024-03-07T03:28:41;21.20;36.10
82039;DHT22;71610;42.628;23.378;2024-03-07T03:31:08;21.20;36.20
82039;DHT22;71610;42.628;23.378;2024-03-07T03:33:34;21.20;36.10
82039;DHT22;71610;42.628;23.378;2024-03-07T03:36:00;21.20;36.00
82039;DHT22;71610;42.628;23.378;2024-03-07T03:38:26;21.20;36.00
82039;DHT22;71610;42.628;23.378;2024-03-07T03:40:52;21.20;36.00
82039;DHT22;71610;42.628;23.378;2024-03-07T03:43:18;21.30;36.00
82039;DHT22;71610;42.628;23.378;2024-03-07T03:45:44;21.30;36.00
82039;DHT22;71610;42.628;23.378;2024-03-07T03:48:11;21.30;35.90
82039;DHT22;71610;42.628;23.378;2024-03-07T03:50:36;21.30;35.90
82039;DHT22;71610;42.628;23.378;2024-03-07T03:53:02;21.30;35.90
82039;DHT22;71610;42.628;23.378;2024-03-07T03:55:29;21.30;35.80
82039;DHT22;71610;42.628;23.378;2024-03-07T03:57:55;21.30;35.80
82039;DHT22;71610;42.628;23.378;2024-03-07T04:00:21;21.30;35.80
82039;DHT22;71610;42.628;23.378;2024-03-07T04:02:48;21.30;35.70
82039;DHT22;71610;42.628;23.378;2024-03-07T04:05:16;21.40;35.80
82039;DHT22;71610;42.628;23.378;2024-03-07T04:07:42;21.30;35.70
82039;DHT22;71610;42.628;23.378;2024-03-07T04:10:09;21.40;35.80
82039;DHT22;71610;42.628;23.378;2024-03-07T04:12:36;21.40;35.80
82039;DHT22;71610;42.628;23.378;2024-03-07T04:15:07;21.40;35.70
82039;DHT22;71610;42.628;23.378;2024-03-07T04:17:36;21.40;36.80
82039;DHT22;71610;42.628;23.378;2024-03-07T04:20:04;21.40;35.70
82039;DHT22;71610;42.628;23.378;2024-03-07T04:22:33;21.40;35.70
82039;DHT22;71610;42.628;23.378;2024-03-07T04:25:00;21.40;35.70
82039;DHT22;71610;42.628;23.378;2024-03-07T04:27:26;21.40;35.70
82039;DHT22;71610;42.628;23.378;2024-03-07T04:29:53;21.40;35.60
82039;DHT22;71610;42.628;23.378;2024-03-07T04:32:18;21.40;35.60
82039;DHT22;71610;42.628;23.378;2024-03-07T04:34:44;21.40;35.60
82039;DHT22;71610;42.628;23.378;2024-03-07T04:37:10;21.40;35.60
82039;DHT22;71610;42.628;23.378;2024-03-07T04:39:39;21.40;35.60
82039;DHT22;71610;42.628;23.378;2024-03-07T04:42:06;21.40;35.60
82039;DHT22;71610;42.628;23.378;2024-03-07T04:44:33;21.40;35.50
82039;DHT22;71610;42.628;23.378;2024-03-07T04:47:02;21.40;35.60
82039;DHT22;71610;42.628;23.378;2024-03-07T04:49:30;21.40;35.50
82039;DHT22;71610;42.628;23.378;2024-03-07T04:52:00;21.40;35.40
82039;DHT22;71610;42.628;23.378;2024-03-07T04:54:28;21.50;35.60
82039;DHT22;71610;42.628;23.378;2024-03-07T04:56:54;21.40;35.50
82039;DHT22;71610;42.628;23.378;2024-03-07T04:59:21;21.40;35.30
82039;DHT22;71610;42.628;23.378;2024-03-07T05:01:48;21.40;34.60
82039;DHT22;71610;42.628;23.378;2024-03-07T05:04:16;21.40;33.50
82039;DHT22;71610;42.628;23.378;2024-03-07T05:06:42;21.40;32.80
82039;DHT22;71610;42.628;23.378;2024-03-07T05:09:10;21.40;33.30
82039;DHT22;71610;42.628;23.378;2024-03-07T05:11:47;21.40;32.00
82039;DHT22;71610;42.628;23.378;2024-03-07T05:14:12;21.30;31.70
82039;DHT22;71610;42.628;23.378;2024-03-07T05:16:38;21.30;31.50
82039;DHT22;71610;42.628;23.378;2024-03-07T05:19:04;21.30;32.40
82039;DHT22;71610;42.628;23.378;2024-03-07T05:21:30;21.20;34.40
82039;DHT22;71610;42.628;23.378;2024-03-07T05:24:03;21.20;35.20
82039;DHT22;71610;42.628;23.378;2024-03-07T05:26:30;21.20;35.10
82039;DHT22;71610;42.628;23.378;2024-03-07T05:29:08;21.10;34.20
82039;DHT22;71610;42.628;23.378;2024-03-07T05:31:36;21.00;33.80
82039;DHT22;71610;42.628;23.378;2024-03-07T05:34:06;21.00;32.60
82039;DHT22;71610;42.628;23.378;2024-03-07T05:36:37;21.00;32.30
82039;DHT22;71610;42.628;23.378;2024-03-07T05:39:16;20.90;32.40
82039;DHT22;71610;42.628;23.378;2024-03-07T05:41:43;20.90;32.50
82039;DHT22;71610;42.628;23.378;2024-03-07T05:44:10;20.90;32.60
82039;DHT22;71610;42.628;23.378;2024-03-07T05:46:42;20.90;33.00
82039;DHT22;71610;42.628;23.378;2024-03-07T05:49:15;20.90;33.80
82039;DHT22;71610;42.628;23.378;2024-03-07T05:51:42;21.00;34.00
82039;DHT22;71610;42.628;23.378;2024-03-07T05:54:11;21.00;33.80
82039;DHT22;71610;42.628;23.378;2024-03-07T05:56:39;21.00;33.50
82039;DHT22;71610;42.628;23.378;2024-03-07T05:59:05;21.00;33.50
82039;DHT22;71610;42.628;23.378;2024-03-07T06:01:33;21.00;33.50
82039;DHT22;71610;42.628;23.378;2024-03-07T06:04:04;21.10;33.50
82039;DHT22;71610;42.628;23.378;2024-03-07T06:06:37;21.10;33.60
82039;DHT22;71610;42.628;23.378;2024-03-07T06:09:04;21.10;33.70
82039;DHT22;71610;42.628;23.378;2024-03-07T06:11:38;21.10;33.70
82039;DHT22;71610;42.628;23.378;2024-03-07T06:14:06;21.10;33.60
82039;DHT22;71610;42.628;23.378;2024-03-07T06:16:35;21.10;33.80
82039;DHT22;71610;42.628;23.378;2024-03-07T06:19:01;21.20;33.90
82039;DHT22;71610;42.628;23.378;2024-03-07T06:21:29;21.20;33.90
82039;DHT22;71610;42.628;23.378;2024-03-07T06:23:58;21.20;34.00
82039;DHT22;71610;42.628;23.378;2024-03-07T06:26:31;21.20;34.10
82039;DHT22;71610;42.628;23.378;2024-03-07T06:29:19;21.30;34.50
82039;DHT22;71610;42.628;23.378;2024-03-07T06:31:45;21.30;34.70
82039;DHT22;71610;42.628;23.378;2024-03-07T06:34:12;21.30;34.70
82039;DHT22;71610;42.628;23.378;2024-03-07T06:36:38;21.30;35.00
82039;DHT22;71610;42.628;23.378;2024-03-07T06:39:04;21.40;35.30
82039;DHT22;71610;42.628;23.378;2024-03-07T06:41:34;21.40;35.40
82039;DHT22;71610;42.628;23.378;2024-03-07T06:44:00;21.50;35.60
82039;DHT22;71610;42.628;23.378;2024-03-07T06:46:26;21.50;35.70
82039;DHT22;71610;42.628;23.378;2024-03-07T06:48:52;21.50;35.70
82039;DHT22;71610;42.628;23.378;2024-03-07T06:51:19;21.50;36.20
82039;DHT22;71610;42.628;23.378;2024-03-07T06:53:44;21.50;36.50
82039;DHT22;71610;42.628;23.378;2024-03-07T06:56:14;21.60;37.00
82039;DHT22;71610;42.628;23.378;2024-03-07T06:58:40;21.60;38.10
82039;DHT22;71610;42.628;23.378;2024-03-07T07:01:07;21.60;38.20
82039;DHT22;71610;42.628;23.378;2024-03-07T07:03:36;21.70;38.10
82039;DHT22;71610;42.628;23.378;2024-03-07T07:06:03;21.70;38.20
82039;DHT22;71610;42.628;23.378;2024-03-07T07:08:32;21.70;38.10
82039;DHT22;71610;42.628;23.378;2024-03-07T07:10:58;21.70;38.30
82039;DHT22;71610;42.628;23.378;2024-03-07T07:13:24;21.80;38.50
82039;DHT22;71610;42.628;23.378;2024-03-07T07:15:50;21.80;38.70
82039;DHT22;71610;42.628;23.378;2024-03-07T07:18:16;21.90;39.30
82039;DHT22;71610;42.628;23.378;2024-03-07T07:20:42;21.90;39.10
82039;DHT22;71610;42.628;23.378;2024-03-07T07:23:08;21.90;39.20
82039;DHT22;71610;42.628;23.378;2024-03-07T07:25:35;22.00;39.30
82039;DHT22;71610;42.628;23.378;2024-03-07T07:28:01;22.00;39.30
82039;DHT22;71610;42.628;23.378;2024-03-07T07:30:30;22.00;39.50
82039;DHT22;71610;42.628;23.378;2024-03-07T07:32:56;22.10;39.60
82039;DHT22;71610;42.628;23.378;2024-03-07T07:35:22;22.10;39.70
82039;DHT22;71610;42.628;23.378;2024-03-07T07:37:50;22.10;39.80
82039;DHT22;71610;42.628;23.378;2024-03-07T07:40:21;22.10;39.80
82039;DHT22;71610;42.628;23.378;2024-03-07T07:42:50;22.20;40.10
82039;DHT22;71610;42.628;23.378;2024-03-07T07:45:18;22.20;40.30
82039;DHT22;71610;42.628;23.378;2024-03-07T07:47:46;22.20;40.20
82039;DHT22;71610;42.628;23.378;2024-03-07T07:50:14;22.20;39.30
82039;DHT22;71610;42.628;23.378;2024-03-07T07:52:47;22.20;39.10
82039;DHT22;71610;42.628;23.378;2024-03-07T07:55:28;22.30;39.20
82039;DHT22;71610;42.628;23.378;2024-03-07T07:57:56;22.30;39.70
82039;DHT22;71610;42.628;23.378;2024-03-07T08:00:24;22.30;39.80
82039;DHT22;71610;42.628;23.378;2024-03-07T08:02:51;22.30;39.90
82039;DHT22;71610;42.628;23.378;2024-03-07T08:05:18;22.30;39.60
82039;DHT22;71610;42.628;23.378;2024-03-07T08:07:45;22.30;39.40
82039;DHT22;71610;42.628;23.378;2024-03-07T08:10:13;22.30;39.50
82039;DHT22;71610;42.628;23.378;2024-03-07T08:12:40;22.30;39.80
82039;DHT22;71610;42.628;23.378;2024-03-07T08:15:11;22.30;39.90
82039;DHT22;71610;42.628;23.378;2024-03-07T08:17:48;22.30;40.20
82039;DHT22;71610;42.628;23.378;2024-03-07T08:20:16;22.30;40.50
82039;DHT22;71610;42.628;23.378;2024-03-07T08:22:44;22.30;40.60
82039;DHT22;71610;42.628;23.378;2024-03-07T08:25:11;22.30;40.80
82039;DHT22;71610;42.628;23.378;2024-03-07T08:27:39;22.30;40.70
82039;DHT22;71610;42.628;23.378;2024-03-07T08:30:06;22.40;40.90
82039;DHT22;71610;42.628;23.378;2024-03-07T08:32:34;22.40;40.90
82039;DHT22;71610;42.628;23.378;2024-03-07T08:35:06;22.40;41.00
82039;DHT22;71610;42.628;23.378;2024-03-07T08:37:45;22.40;40.90
82039;DHT22;71610;42.628;23.378;2024-03-07T08:40:12;22.40;40.70
82039;DHT22;71610;42.628;23.378;2024-03-07T08:42:52;22.30;40.60
82039;DHT22;71610;42.628;23.378;2024-03-07T08:45:19;22.40;40.70
82039;DHT22;71610;42.628;23.378;2024-03-07T08:47:46;22.40;40.60
82039;DHT22;71610;42.628;23.378;2024-03-07T08:50:13;22.40;40.50
82039;DHT22;71610;42.628;23.378;2024-03-07T08:52:40;22.40;40.50
82039;DHT22;71610;42.628;23.378;2024-03-07T08:55:07;22.40;41.50
82039;DHT22;71610;42.628;23.378;2024-03-07T08:57:37;22.40;40.50
82039;DHT22;71610;42.628;23.378;2024-03-07T09:00:07;22.40;40.20
82039;DHT22;71610;42.628;23.378;2024-03-07T09:02:38;22.50;40.20
82039;DHT22;71610;42.628;23.378;2024-03-07T09:05:05;22.50;40.20
82039;DHT22;71610;42.628;23.378;2024-03-07T09:07:32;22.50;40.20
82039;DHT22;71610;42.628;23.378;2024-03-07T09:10:00;22.50;40.00
82039;DHT22;71610;42.628;23.378;2024-03-07T09:12:28;22.50;40.00
82039;DHT22;71610;42.628;23.378;2024-03-07T09:14:54;22.50;39.70
82039;DHT22;71610;42.628;23.378;2024-03-07T09:17:23;22.50;39.60
82039;DHT22;71610;42.628;23.378;2024-03-07T09:19:49;22.50;39.60
82039;DHT22;71610;42.628;23.378;2024-03-07T09:22:15;22.50;40.00
82039;DHT22;71610;42.628;23.378;2024-03-07T09:24:41;22.40;40.00
82039;DHT22;71610;42.628;23.378;2024-03-07T09:27:06;22.50;39.40
82039;DHT22;71610;42.628;23.378;2024-03-07T09:29:33;22.50;38.60
82039;DHT22;71610;42.628;23.378;2024-03-07T09:31:59;22.50;38.20
82039;DHT22;71610;42.628;23.378;2024-03-07T09:34:25;22.50;38.20
82039;DHT22;71610;42.628;23.378;2024-03-07T09:36:51;22.40;38.10
82039;DHT22;71610;42.628;23.378;2024-03-07T09:39:18;22.40;37.80
82039;DHT22;71610;42.628;23.378;2024-03-07T09:41:46;22.40;37.40
82039;DHT22;71610;42.628;23.378;2024-03-07T09:44:14;22.40;37.50
82039;DHT22;71610;42.628;23.378;2024-03-07T09:46:48;22.40;37.70
82039;DHT22;71610;42.628;23.378;2024-03-07T09:49:14;22.40;37.60
82039;DHT22;71610;42.628;23.378;2024-03-07T09:51:40;22.40;38.10
82039;DHT22;71610;42.628;23.378;2024-03-07T09:54:08;22.40;38.30
82039;DHT22;71610;42.628;23.378;2024-03-07T09:56:36;22.40;38.30
82039;DHT22;71610;42.628;23.378;2024-03-07T09:59:04;22.40;38.60
82039;DHT22;71610;42.628;23.378;2024-03-07T10:01:33;22.40;38.80
82039;DHT22;71610;42.628;23.378;2024-03-07T10:04:04;22.40;38.40
82039;DHT22;71610;42.628;23.378;2024-03-07T10:06:44;22.40;38.40
82039;DHT22;71610;42.628;23.378;2024-03-07T10:09:13;22.40;38.20
82039;DHT22;71610;42.628;23.378;2024-03-07T10:11:40;22.40;38.10
82039;DHT22;71610;42.628;23.378;2024-03-07T10:14:09;22.50;37.90
82039;DHT22;71610;42.628;23.378;2024-03-07T10:16:36;22.40;37.60
82039;DHT22;71610;42.628;23.378;2024-03-07T10:19:05;22.40;37.00
82039;DHT22;71610;42.628;23.378;2024-03-07T10:21:33;22.40;36.60
82039;DHT22;71610;42.628;23.378;2024-03-07T10:24:08;22.40;36.50
82039;DHT22;71610;42.628;23.378;2024-03-07T10:26:35;22.40;36.40
82039;DHT22;71610;42.628;23.378;2024-03-07T10:29:01;22.40;36.50
82039;DHT22;71610;42.628;23.378;2024-03-07T10:31:34;22.40;36.70
82039;DHT22;71610;42.628;23.378;2024-03-07T10:34:03;22.40;36.70
82039;DHT22;71610;42.628;23.378;2024-03-07T10:36:32;22.40;36.40
82039;DHT22;71610;42.628;23.378;2024-03-07T10:39:02;22.40;36.40
82039;DHT22;71610;42.628;23.378;2024-03-07T10:41:47;22.40;36.10
82039;DHT22;71610;42.628;23.378;2024-03-07T10:44:24;22.40;35.80
82039;DHT22;71610;42.628;23.378;2024-03-07T10:46:55;22.40;35.70
82039;DHT22;71610;42.628;23.378;2024-03-07T10:49:25;22.40;35.60
82039;DHT22;71610;42.628;23.378;2024-03-07T10:52:05;22.40;35.40
82039;DHT22;71610;42.628;23.378;2024-03-07T10:54:46;22.30;35.40
82039;DHT22;71610;42.628;23.378;2024-03-07T10:57:32;22.30;34.70
82039;DHT22;71610;42.628;23.378;2024-03-07T11:00:03;22.30;34.20
82039;DHT22;71610;42.628;23.378;2024-03-07T11:02:49;22.30;33.20
82039;DHT22;71610;42.628;23.378;2024-03-07T11:05:21;22.20;32.20
82039;DHT22;71610;42.628;23.378;2024-03-07T11:07:50;22.20;32.30
82039;DHT22;71610;42.628;23.378;2024-03-07T11:10:18;22.10;32.30
82039;DHT22;71610;42.628;23.378;2024-03-07T11:12:44;22.10;32.40
82039;DHT22;71610;42.628;23.378;2024-03-07T11:15:12;22.10;32.50
82039;DHT22;71610;42.628;23.378;2024-03-07T11:17:46;22.10;32.70
82039;DHT22;71610;42.628;23.378;2024-03-07T11:20:25;22.10;32.70
82039;DHT22;71610;42.628;23.378;2024-03-07T11:22:51;22.10;32.80
82039;DHT22;71610;42.628;23.378;2024-03-07T11:25:19;22.10;33.00
82039;DHT22;71610;42.628;23.378;2024-03-07T11:30:22;22.10;34.20
82039;DHT22;71610;42.628;23.378;2024-03-07T11:32:53;22.10;34.50
82039;DHT22;71610;42.628;23.378;2024-03-07T11:35:33;22.10;34.60
82039;DHT22;71610;42.628;23.378;2024-03-07T11:38:01;22.20;34.60
82039;DHT22;71610;42.628;23.378;2024-03-07T11:42:56;22.20;34.50
82039;DHT22;71610;42.628;23.378;2024-03-07T11:45:31;22.20;34.60
82039;DHT22;71610;42.628;23.378;2024-03-07T11:48:10;22.10;34.60
82039;DHT22;71610;42.628;23.378;2024-03-07T11:50:37;22.20;34.80
82039;DHT22;71610;42.628;23.378;2024-03-07T11:53:04;22.10;34.90
82039;DHT22;71610;42.628;23.378;2024-03-07T11:55:34;22.20;35.30
82039;DHT22;71610;42.628;23.378;2024-03-07T11:58:17;22.20;35.50
82039;DHT22;71610;42.628;23.378;2024-03-07T12:00:44;22.20;35.50
82039;DHT22;71610;42.628;23.378;2024-03-07T12:03:11;22.20;35.70
82039;DHT22;71610;42.628;23.378;2024-03-07T12:05:40;22.20;35.80
82039;DHT22;71610;42.628;23.378;2024-03-07T12:08:07;22.20;35.80
82039;DHT22;71610;42.628;23.378;2024-03-07T12:10:36;22.20;35.90
82039;DHT22;71610;42.628;23.378;2024-03-07T12:13:03;22.20;35.90
82039;DHT22;71610;42.628;23.378;2024-03-07T12:15:31;22.20;36.00
82039;DHT22;71610;42.628;23.378;2024-03-07T12:17:57;22.20;36.10
82039;DHT22;71610;42.628;23.378;2024-03-07T12:20:23;22.20;36.20
82039;DHT22;71610;42.628;23.378;2024-03-07T12:22:51;22.20;36.30
82039;DHT22;71610;42.628;23.378;2024-03-07T12:25:20;22.20;36.50
82039;DHT22;71610;42.628;23.378;2024-03-07T12:28:09;22.20;36.60
82039;DHT22;71610;42.628;23.378;2024-03-07T12:30:49;22.30;36.70
82039;DHT22;71610;42.628;23.378;2024-03-07T12:33:15;22.30;36.90
82039;DHT22;71610;42.628;23.378;2024-03-07T12:38:12;22.20;37.10
82039;DHT22;71610;42.628;23.378;2024-03-07T12:40:40;22.30;37.20
82039;DHT22;71610;42.628;23.378;2024-03-07T12:43:20;22.30;37.30
82039;DHT22;71610;42.628;23.378;2024-03-07T12:45:52;22.30;37.30
82039;DHT22;71610;42.628;23.378;2024-03-07T12:48:20;22.20;37.20
82039;DHT22;71610;42.628;23.378;2024-03-07T12:50:49;22.20;37.30
82039;DHT22;71610;42.628;23.378;2024-03-07T12:53:22;22.20;37.40
82039;DHT22;71610;42.628;23.378;2024-03-07T12:55:51;22.30;37.70
82039;DHT22;71610;42.628;23.378;2024-03-07T12:58:17;22.30;38.00
82039;DHT22;71610;42.628;23.378;2024-03-07T13:00:45;22.30;38.30
82039;DHT22;71610;42.628;23.378;2024-03-07T13:03:11;22.30;38.50
82039;DHT22;71610;42.628;23.378;2024-03-07T13:05:40;22.30;38.70
82039;DHT22;71610;42.628;23.378;2024-03-07T13:08:07;22.30;38.90
82039;DHT22;71610;42.628;23.378;2024-03-07T13:10:42;22.30;38.70
82039;DHT22;71610;42.628;23.378;2024-03-07T13:13:08;22.40;38.70
82039;DHT22;71610;42.628;23.378;2024-03-07T13:15:40;22.30;38.90
82039;DHT22;71610;42.628;23.378;2024-03-07T13:18:08;22.40;39.00
82039;DHT22;71610;42.628;23.378;2024-03-07T13:20:35;22.60;39.00
82039;DHT22;71610;42.628;23.378;2024-03-07T13:23:02;22.80;38.90
82039;DHT22;71610;42.628;23.378;2024-03-07T13:25:28;22.90;38.80
82039;DHT22;71610;42.628;23.378;2024-03-07T13:28:09;23.00;38.60
82039;DHT22;71610;42.628;23.378;2024-03-07T13:30:39;23.00;38.50
82039;DHT22;71610;42.628;23.378;2024-03-07T13:33:05;23.10;38.60
82039;DHT22;71610;42.628;23.378;2024-03-07T13:35:31;23.10;38.80
82039;DHT22;71610;42.628;23.378;2024-03-07T13:37:57;23.20;39.00
82039;DHT22;71610;42.628;23.378;2024-03-07T13:40:25;23.30;39.10
82039;DHT22;71610;42.628;23.378;2024-03-07T13:42:58;23.40;39.20
82039;DHT22;71610;42.628;23.378;2024-03-07T13:45:29;23.50;39.20
82039;DHT22;71610;42.628;23.378;2024-03-07T13:48:04;23.50;39.20
82039;DHT22;71610;42.628;23.378;2024-03-07T13:50:31;23.60;39.20
82039;DHT22;71610;42.628;23.378;2024-03-07T13:52:58;23.60;39.30
82039;DHT22;71610;42.628;23.378;2024-03-07T13:55:34;23.70;39.30
82039;DHT22;71610;42.628;23.378;2024-03-07T13:58:09;23.70;39.10
82039;DHT22;71610;42.628;23.378;2024-03-07T14:06:10;23.90;39.20
82039;DHT22;71610;42.628;23.378;2024-03-07T14:23:41;24.10;39.70
82039;DHT22;71610;42.628;23.378;2024-03-07T14:26:49;24.10;39.70
82039;DHT22;71610;42.628;23.378;2024-03-07T14:29:44;24.10;39.80
82039;DHT22;71610;42.628;23.378;2024-03-07T14:32:12;24.10;39.90
82039;DHT22;71610;42.628;23.378;2024-03-07T14:35:00;24.10;40.10
82039;DHT22;71610;42.628;23.378;2024-03-07T14:38:39;24.20;40.20
82039;DHT22;71610;42.628;23.378;2024-03-07T14:40:31;24.20;40.40
82039;DHT22;71610;42.628;23.378;2024-03-07T14:43:01;24.20;40.50
82039;DHT22;71610;42.628;23.378;2024-03-07T14:45:41;24.20;40.70
82039;DHT22;71610;42.628;23.378;2024-03-07T14:48:07;24.30;40.70
82039;DHT22;71610;42.628;23.378;2024-03-07T14:50:37;24.30;40.90
82039;DHT22;71610;42.628;23.378;2024-03-07T14:53:04;24.30;41.10
82039;DHT22;71610;42.628;23.378;2024-03-07T14:55:31;24.30;41.40
82039;DHT22;71610;42.628;23.378;2024-03-07T14:57:58;24.30;41.70
82039;DHT22;71610;42.628;23.378;2024-03-07T15:00:24;24.30;41.70
82039;DHT22;71610;42.628;23.378;2024-03-07T15:02:54;24.30;41.70
82039;DHT22;71610;42.628;23.378;2024-03-07T15:05:23;24.30;41.70
82039;DHT22;71610;42.628;23.378;2024-03-07T15:07:53;24.30;41.90
82039;DHT22;71610;42.628;23.378;2024-03-07T15:10:24;24.30;42.30
82039;DHT22;71610;42.628;23.378;2024-03-07T15:12:52;24.30;42.50
82039;DHT22;71610;42.628;23.378;2024-03-07T15:15:18;24.20;42.60
82039;DHT22;71610;42.628;23.378;2024-03-07T15:17:45;24.10;42.60
82039;DHT22;71610;42.628;23.378;2024-03-07T15:20:12;24.10;42.00
82039;DHT22;71610;42.628;23.378;2024-03-07T15:25:16;24.00;43.50
82039;DHT22;71610;42.628;23.378;2024-03-07T15:27:44;23.90;43.80
82039;DHT22;71610;42.628;23.378;2024-03-07T15:30:10;23.90;43.30
82039;DHT22;71610;42.628;23.378;2024-03-07T15:32:46;23.80;42.50
82039;DHT22;71610;42.628;23.378;2024-03-07T15:35:14;23.80;42.10
82039;DHT22;71610;42.628;23.378;2024-03-07T15:37:49;23.80;42.00
82039;DHT22;71610;42.628;23.378;2024-03-07T15:40:16;23.70;41.80
82039;DHT22;71610;42.628;23.378;2024-03-07T15:42:46;23.70;41.80
82039;DHT22;71610;42.628;23.378;2024-03-07T15:45:15;23.60;41.90
82039;DHT22;71610;42.628;23.378;2024-03-07T15:47:45;23.60;41.90
82039;DHT22;71610;42.628;23.378;2024-03-07T15:50:11;23.50;41.80
82039;DHT22;71610;42.628;23.378;2024-03-07T15:52:39;23.50;41.90
82039;DHT22;71610;42.628;23.378;2024-03-07T15:55:09;23.50;42.00